Kezdőlap
METAR-TAF:

METAR-TAF

Repülőterek :

Nizhnekamsk, Oroszország

földrajzi szélesség: 55-33-48N, földrajzi hosszúság: 052-05-42E, magasság: 196 m

Jelenlegi meteorológiai megfigyelések

A jelentés 21 perccel ezelõtt készült, 13:00 UTC
Észak-északnyugati szél 14 kt
Hőmérséklet 7°C
Páratartalom 87%
Légköri nyomás 1009 hPa
Látótávolság: 3100 m
Borult 700 lábon
enyhe esõ

METAR: UWKE 151300Z 34007MPS 3100 -RA OVC007 07/05 Q1009 R03/210355 NOSIG RMK OBST OBSC QFE739/0986

Idő: 16:21 (13:21 UTC)


TAF: hiányzik

Meteorológiai megfigyelések és előrejelzések több, mint 4000 repülőtéren (METAR és TAF jelentéseket).

A térképen piros és sárga pontok jelzik az elérhető meteorológiai állomásokat.

Mozgassa az egeret a pont fölött, hogy megjelenjen az állomás neve.

Azután kattintson az időjárási megfigyelések és előrejelzések megtekintéséhez.

A térkép megváltoztatása: kattintson a fekete keresztel jelölt zöld gombra ráközelítéshez, a vonallal jelölt zöld gombra távolításhoz, vagy a zöld nyilakra a szomszédos térképek eléréséhez.


METAR-TAF: